Time;durP1;ratioP1;P1;durP2;ratioP2;P2;SDS_P1;SDS_P2;PMS_P1;PMS_P2;Temp;Humidity;BMP_temperature;BMP_pressure;BME280_temperature;BME280_humidity;BME280_pressure;Samples;Min_cycle;Max_cycle;Signal;HPM_P1;HPM_P2
2023/05/30 00:01:20;;;;;;;11.73;7.97;;;24.30;1.00;;;;;;5050763;28;20057;-53
2023/05/30 00:03:46;;;;;;;9.30;8.05;;;24.30;1.00;;;;;;5051853;28;20036;-53
2023/05/30 00:06:13;;;;;;;9.52;7.65;;;24.30;1.00;;;;;;5052913;28;20017;-53
2023/05/30 00:08:40;;;;;;;9.10;7.28;;;24.30;1.00;;;;;;5051307;28;20037;-53
2023/05/30 00:11:06;;;;;;;9.10;8.23;;;24.20;1.00;;;;;;5052890;28;20037;-48
2023/05/30 00:13:32;;;;;;;9.10;8.15;;;24.20;1.00;;;;;;5051650;28;20029;-52
2023/05/30 00:15:59;;;;;;;9.65;8.57;;;24.20;1.00;;;;;;5047318;28;20073;-49
2023/05/30 00:18:25;;;;;;;9.80;7.65;;;24.20;1.00;;;;;;5052752;28;20021;-54
2023/05/30 00:20:51;;;;;;;10.00;8.32;;;24.20;1.00;;;;;;5047739;28;20053;-50
2023/05/30 00:23:17;;;;;;;9.75;8.75;;;24.20;1.00;;;;;;5050014;28;20032;-53
2023/05/30 00:25:48;;;;;;;10.80;8.50;;;24.20;1.00;;;;;;5043390;28;20414;-51
2023/05/30 00:28:14;;;;;;;10.13;7.90;;;24.20;1.00;;;;;;5046523;28;20036;-54
2023/05/30 00:30:41;;;;;;;12.73;9.15;;;24.10;1.00;;;;;;5052037;28;20474;-50
2023/05/30 00:33:06;;;;;;;8.70;7.88;;;24.10;1.00;;;;;;5052663;28;20090;-54
2023/05/30 00:35:32;;;;;;;9.65;7.68;;;24.10;1.00;;;;;;5049682;28;20104;-51
2023/05/30 00:37:58;;;;;;;11.93;8.50;;;24.10;1.00;;;;;;5052557;28;20112;-48
2023/05/30 00:40:23;;;;;;;12.32;8.90;;;24.10;1.00;;;;;;5040986;28;20490;-49
2023/05/30 00:42:49;;;;;;;9.90;8.90;;;24.10;1.00;;;;;;5054970;28;20036;-48
2023/05/30 00:45:15;;;;;;;10.43;8.88;;;24.00;1.00;;;;;;5054967;28;20035;-50
2023/05/30 00:47:41;;;;;;;11.27;8.85;;;24.00;1.00;;;;;;5051654;28;20039;-48
2023/05/30 00:50:08;;;;;;;9.93;8.65;;;24.10;1.00;;;;;;5053539;28;20044;-50
2023/05/30 00:52:34;;;;;;;11.27;8.70;;;24.00;1.00;;;;;;5056568;28;20414;-50
2023/05/30 00:55:02;;;;;;;9.48;8.48;;;24.00;1.00;;;;;;5053907;28;20029;-49
2023/05/30 00:57:29;;;;;;;13.60;10.00;;;23.90;1.00;;;;;;5054917;28;20107;-55
2023/05/30 00:59:56;;;;;;;10.68;9.57;;;23.90;1.00;;;;;;5056172;28;20438;-55
2023/05/30 01:02:23;;;;;;;13.40;10.63;;;23.90;1.00;;;;;;5055286;28;20029;-54
2023/05/30 01:04:49;;;;;;;10.07;9.07;;;23.90;1.00;;;;;;5055697;28;20474;-54
2023/05/30 01:07:15;;;;;;;10.85;9.35;;;23.90;1.00;;;;;;5054679;28;20108;-53
2023/05/30 01:09:41;;;;;;;13.38;10.23;;;23.80;1.00;;;;;;5050643;28;20039;-55
2023/05/30 01:12:21;;;;;;;11.43;10.32;;;23.80;1.00;;;;;;5049944;28;20033;-52
2023/05/30 01:14:59;;;;;;;12.40;11.02;;;23.80;1.00;;;;;;5044743;28;20131;-55
2023/05/30 01:18:01;;;;;;;11.73;10.63;;;23.80;1.00;;;;;;5046660;28;20017;-53
2023/05/30 01:20:30;;;;;;;12.30;10.40;;;23.70;1.00;;;;;;5052415;28;20059;-50
2023/05/30 01:23:33;;;;;;;12.35;10.70;;;23.70;1.00;;;;;;5055759;28;20025;-54
2023/05/30 01:26:02;;;;;;;12.05;10.18;;;23.70;1.00;;;;;;5045423;28;20415;-53
2023/05/30 01:28:32;;;;;;;12.57;9.77;;;23.60;1.00;;;;;;5051641;28;20119;-53
2023/05/30 01:30:59;;;;;;;13.82;10.05;;;23.60;1.00;;;;;;5053641;28;20025;-54
2023/05/30 01:33:26;;;;;;;14.82;11.35;;;23.60;1.00;;;;;;5051384;28;20254;-53
2023/05/30 01:35:51;;;;;;;15.77;11.48;;;23.60;1.00;;;;;;5051657;28;20473;-51
2023/05/30 01:38:17;;;;;;;14.82;10.77;;;23.50;1.00;;;;;;5043037;28;20104;-48
2023/05/30 01:40:50;;;;;;;16.27;11.15;;;23.50;1.00;;;;;;5048290;28;20036;-50
2023/05/30 01:43:50;;;;;;;13.80;11.88;;;23.50;1.00;;;;;;5049198;28;20045;-53
2023/05/30 01:46:34;;;;;;;13.80;10.60;;;23.50;1.00;;;;;;5052840;28;20119;-49
2023/05/30 01:49:27;;;;;;;12.60;11.13;;;23.50;1.00;;;;;;5053872;28;20029;-50
2023/05/30 01:52:07;;;;;;;11.38;10.32;;;23.50;1.00;;;;;;5052314;28;20367;-48
2023/05/30 01:54:35;;;;;;;13.93;10.82;;;23.40;1.00;;;;;;5045557;28;20386;-48
2023/05/30 01:57:08;;;;;;;12.88;10.18;;;23.40;1.00;;;;;;5054252;28;20029;-53
2023/05/30 01:59:35;;;;;;;12.40;10.13;;;23.40;1.00;;;;;;5052063;28;20036;-51
2023/05/30 02:02:02;;;;;;;14.68;9.95;;;23.40;1.00;;;;;;5053269;28;20112;-53
2023/05/30 02:04:28;;;;;;;14.15;10.43;;;23.40;1.00;;;;;;5051397;28;20036;-52
2023/05/30 02:06:54;;;;;;;11.80;9.70;;;23.30;1.00;;;;;;5054017;28;20021;-52
2023/05/30 02:09:26;;;;;;;12.88;9.90;;;23.30;1.00;;;;;;5053289;28;20047;-55
2023/05/30 02:11:51;;;;;;;12.20;9.38;;;23.30;1.00;;;;;;5053455;28;20082;-52
2023/05/30 02:14:17;;;;;;;10.82;8.98;;;23.30;1.00;;;;;;5039369;28;20037;-52
2023/05/30 02:16:44;;;;;;;10.75;9.07;;;23.30;1.00;;;;;;5050755;28;20056;-49
2023/05/30 02:19:12;;;;;;;10.00;9.00;;;23.30;1.00;;;;;;5053672;28;20029;-50
2023/05/30 02:21:38;;;;;;;9.95;8.88;;;23.30;1.00;;;;;;5051808;28;20045;-48
2023/05/30 02:24:04;;;;;;;10.27;9.13;;;23.20;1.00;;;;;;5052789;28;20044;-50
2023/05/30 02:26:30;;;;;;;14.70;9.40;;;23.20;1.00;;;;;;5052866;28;20021;-53
2023/05/30 02:28:56;;;;;;;12.05;10.13;;;23.20;1.00;;;;;;5051300;28;20059;-52
2023/05/30 02:31:21;;;;;;;11.73;8.93;;;23.20;1.00;;;;;;5053430;28;20021;-53
2023/05/30 02:33:47;;;;;;;10.30;9.10;;;23.20;1.00;;;;;;5051158;28;20029;-49
2023/05/30 02:36:13;;;;;;;10.65;9.50;;;23.20;1.00;;;;;;5053741;28;20053;-49
2023/05/30 02:38:39;;;;;;;10.70;9.38;;;23.10;1.00;;;;;;5052066;28;20580;-50
2023/05/30 02:41:05;;;;;;;10.63;8.60;;;23.10;1.00;;;;;;5051283;28;20048;-50
2023/05/30 02:43:30;;;;;;;12.27;9.73;;;23.10;1.00;;;;;;5035426;28;20029;-51
2023/05/30 02:45:56;;;;;;;12.10;9.80;;;23.00;1.00;;;;;;5052631;28;20482;-48
2023/05/30 02:48:22;;;;;;;9.93;8.93;;;23.00;1.00;;;;;;5053106;28;20040;-50
2023/05/30 02:50:47;;;;;;;10.55;9.43;;;23.00;1.00;;;;;;5051694;28;20459;-48
2023/05/30 02:53:13;;;;;;;11.60;9.50;;;23.00;1.00;;;;;;5049991;28;20036;-51
2023/05/30 02:55:42;;;;;;;10.25;8.93;;;22.90;1.00;;;;;;5052982;28;20025;-48
2023/05/30 02:58:09;;;;;;;13.73;10.48;;;23.00;1.00;;;;;;5049689;28;20452;-49
2023/05/30 03:00:35;;;;;;;13.73;10.65;;;23.00;1.00;;;;;;5053115;28;20131;-51
2023/05/30 03:03:00;;;;;;;14.98;11.25;;;22.90;1.00;;;;;;5048695;28;20060;-50
2023/05/30 03:05:26;;;;;;;13.95;10.10;;;22.90;1.00;;;;;;5048034;28;20056;-49
2023/05/30 03:07:52;;;;;;;13.45;11.70;;;22.80;1.00;;;;;;5051628;28;20032;-49
2023/05/30 03:10:17;;;;;;;12.93;11.35;;;22.90;1.00;;;;;;5050758;28;20059;-51
2023/05/30 03:12:43;;;;;;;15.25;11.18;;;22.90;1.00;;;;;;5052811;28;20427;-52
2023/05/30 03:15:09;;;;;;;14.90;11.63;;;22.80;1.00;;;;;;5050640;28;20111;-52
2023/05/30 03:17:35;;;;;;;15.88;11.70;;;22.80;1.00;;;;;;5051526;28;20029;-50
2023/05/30 03:20:01;;;;;;;11.68;10.38;;;22.80;1.00;;;;;;5051543;28;20028;-50
2023/05/30 03:22:27;;;;;;;11.70;10.50;;;22.80;1.00;;;;;;5042054;28;20025;-49
2023/05/30 03:24:52;;;;;;;13.48;10.20;;;22.80;1.00;;;;;;5040570;28;20021;-48
2023/05/30 03:27:18;;;;;;;14.27;10.63;;;22.80;1.00;;;;;;5051834;28;20029;-49
2023/05/30 03:29:44;;;;;;;13.65;10.77;;;22.80;1.00;;;;;;5051653;28;20506;-50
2023/05/30 03:32:10;;;;;;;11.65;9.95;;;22.70;1.00;;;;;;5049492;28;20031;-49
2023/05/30 03:34:37;;;;;;;12.82;10.55;;;22.80;1.00;;;;;;5047045;28;20108;-48
2023/05/30 03:37:03;;;;;;;12.40;10.70;;;22.70;1.00;;;;;;5045200;28;20055;-51
2023/05/30 03:39:29;;;;;;;11.98;10.60;;;22.80;1.00;;;;;;5050302;28;20067;-51
2023/05/30 03:41:55;;;;;;;15.95;10.60;;;22.70;1.00;;;;;;5051941;28;20111;-51
2023/05/30 03:44:21;;;;;;;13.57;10.57;;;22.70;1.00;;;;;;5051614;28;20072;-49
2023/05/30 03:46:47;;;;;;;12.65;10.40;;;22.70;1.00;;;;;;5050856;28;20025;-48
2023/05/30 03:49:13;;;;;;;15.55;10.32;;;22.70;1.00;;;;;;5051894;28;20036;-56
2023/05/30 03:51:38;;;;;;;10.45;9.32;;;22.70;1.00;;;;;;5053253;28;20025;-55
2023/05/30 03:54:04;;;;;;;11.60;9.43;;;22.80;1.00;;;;;;5051551;28;20401;-54
2023/05/30 03:56:30;;;;;;;11.52;9.07;;;22.80;1.00;;;;;;5052824;28;20553;-54
2023/05/30 03:58:55;;;;;;;10.80;9.23;;;22.80;1.00;;;;;;5050708;28;20033;-54
2023/05/30 04:01:22;;;;;;;11.27;9.05;;;22.70;1.00;;;;;;5050716;28;20086;-56
2023/05/30 04:03:47;;;;;;;9.38;8.05;;;22.70;1.00;;;;;;5052890;28;20024;-52
2023/05/30 04:06:14;;;;;;;12.32;9.73;;;22.80;1.00;;;;;;5050886;28;20052;-54
2023/05/30 04:08:40;;;;;;;12.68;10.15;;;22.80;1.00;;;;;;5052025;28;20094;-52
2023/05/30 04:11:07;;;;;;;14.57;10.38;;;22.80;1.00;;;;;;5051031;28;20167;-52
2023/05/30 04:13:34;;;;;;;13.52;11.80;;;22.80;1.00;;;;;;5053899;28;20539;-53
2023/05/30 04:16:00;;;;;;;15.73;10.18;;;22.90;1.00;;;;;;5055713;28;20044;-54
2023/05/30 04:18:26;;;;;;;14.02;10.25;;;22.90;1.00;;;;;;5054503;28;20418;-49
2023/05/30 04:20:52;;;;;;;11.30;10.10;;;22.90;1.00;;;;;;5053617;28;20025;-49
2023/05/30 04:23:17;;;;;;;11.45;10.05;;;22.80;1.00;;;;;;5056770;28;20433;-54
2023/05/30 04:25:44;;;;;;;13.40;10.45;;;22.90;1.00;;;;;;5055571;28;20495;-49
2023/05/30 04:28:12;;;;;;;16.65;10.02;;;22.80;1.00;;;;;;5056462;28;20010;-48
2023/05/30 04:30:38;;;;;;;12.50;10.07;;;22.90;1.00;;;;;;5054685;28;20360;-51
2023/05/30 04:33:04;;;;;;;15.70;10.77;;;22.90;1.00;;;;;;5056689;28;20024;-48
2023/05/30 04:35:32;;;;;;;13.25;10.93;;;22.80;1.00;;;;;;5053904;28;20083;-53
2023/05/30 04:37:58;;;;;;;13.45;10.75;;;22.80;1.00;;;;;;5056410;28;20040;-52
2023/05/30 04:40:25;;;;;;;12.27;9.70;;;22.90;1.00;;;;;;5054005;28;20076;-50
2023/05/30 04:42:52;;;;;;;12.82;9.90;;;22.90;1.00;;;;;;5043466;28;20017;-49
2023/05/30 04:45:18;;;;;;;16.30;10.23;;;22.90;1.00;;;;;;5055293;28;20060;-51
2023/05/30 04:47:47;;;;;;;12.15;10.63;;;22.90;1.00;;;;;;5056152;28;20041;-50
2023/05/30 04:50:16;;;;;;;10.85;9.68;;;22.90;1.00;;;;;;5053332;28;20037;-48
2023/05/30 04:52:42;;;;;;;12.02;9.57;;;22.90;1.00;;;;;;5054873;28;20031;-48
2023/05/30 04:55:09;;;;;;;11.52;10.35;;;22.90;1.00;;;;;;5055994;28;20033;-50
2023/05/30 04:57:38;;;;;;;13.55;10.75;;;22.90;1.00;;;;;;5054667;28;20055;-49
2023/05/30 05:00:05;;;;;;;12.25;10.20;;;22.90;1.00;;;;;;5050375;28;20478;-51
2023/05/30 05:02:30;;;;;;;11.20;10.02;;;22.90;1.00;;;;;;5052966;28;20021;-50
2023/05/30 05:04:56;;;;;;;11.95;9.88;;;22.90;1.00;;;;;;5051025;28;20048;-48
2023/05/30 05:07:22;;;;;;;11.32;9.73;;;23.00;1.00;;;;;;5055816;28;20021;-49
2023/05/30 05:09:47;;;;;;;12.85;10.30;;;23.00;1.00;;;;;;5053906;28;20043;-48
2023/05/30 05:12:13;;;;;;;13.45;10.75;;;23.00;1.00;;;;;;5054965;28;20027;-48
2023/05/30 05:14:41;;;;;;;13.32;10.48;;;22.90;1.00;;;;;;5054164;28;20025;-50
2023/05/30 05:17:07;;;;;;;10.70;9.60;;;22.90;1.00;;;;;;5054642;28;20021;-48
2023/05/30 05:19:34;;;;;;;12.52;9.68;;;23.00;1.00;;;;;;5054281;28;20037;-49
2023/05/30 05:22:02;;;;;;;12.95;9.88;;;23.00;1.00;;;;;;5048546;28;20028;-51
2023/05/30 05:24:28;;;;;;;11.65;9.60;;;22.90;1.00;;;;;;5052783;28;20426;-48
2023/05/30 05:26:54;;;;;;;12.82;9.73;;;22.90;1.00;;;;;;5053410;28;20100;-50
2023/05/30 05:29:19;;;;;;;10.55;9.50;;;22.90;1.00;;;;;;5055693;28;20387;-47
2023/05/30 05:31:45;;;;;;;13.00;10.70;;;23.00;1.00;;;;;;5055738;28;20059;-49
2023/05/30 05:34:11;;;;;;;12.10;9.15;;;23.00;1.00;;;;;;5054909;28;20376;-52
2023/05/30 05:36:37;;;;;;;12.32;8.70;;;23.00;1.00;;;;;;5055736;28;20063;-50
2023/05/30 05:39:02;;;;;;;11.73;8.88;;;23.00;1.00;;;;;;5052004;28;20387;-49
2023/05/30 05:41:28;;;;;;;10.02;8.13;;;23.00;1.00;;;;;;5055338;28;20029;-49
2023/05/30 05:43:54;;;;;;;10.30;9.02;;;23.00;1.00;;;;;;5053716;28;20033;-48
2023/05/30 05:46:20;;;;;;;9.55;8.60;;;23.00;1.00;;;;;;5054579;28;20032;-49
2023/05/30 05:48:45;;;;;;;9.75;8.32;;;23.00;1.00;;;;;;5053915;28;20382;-50
2023/05/30 05:51:11;;;;;;;8.90;8.00;;;23.00;1.00;;;;;;5054960;28;20067;-56
2023/05/30 05:53:37;;;;;;;8.40;7.32;;;23.00;1.00;;;;;;5053591;28;20458;-56
2023/05/30 05:56:03;;;;;;;10.38;7.75;;;23.00;1.00;;;;;;5052994;28;20033;-56
2023/05/30 05:58:28;;;;;;;7.63;6.55;;;23.00;1.00;;;;;;5051647;28;20091;-56
2023/05/30 06:00:54;;;;;;;7.88;6.88;;;23.00;1.00;;;;;;5053215;28;20017;-57
2023/05/30 06:03:20;;;;;;;11.30;7.10;;;23.00;1.00;;;;;;5054084;28;20387;-56
2023/05/30 06:05:46;;;;;;;13.43;7.63;;;23.00;1.00;;;;;;5053590;28;20017;-56
2023/05/30 06:08:11;;;;;;;8.65;7.57;;;23.00;1.00;;;;;;5054443;28;20550;-57
2023/05/30 06:10:37;;;;;;;9.02;7.05;;;23.10;1.00;;;;;;5050782;28;20112;-59
2023/05/30 06:13:03;;;;;;;13.70;8.70;;;23.10;1.00;;;;;;5053071;28;20029;-57
2023/05/30 06:15:28;;;;;;;12.77;9.23;;;23.00;1.00;;;;;;5048321;28;20033;-57
2023/05/30 06:17:54;;;;;;;10.25;8.07;;;23.10;1.00;;;;;;5054658;28;20382;-57
2023/05/30 06:20:20;;;;;;;12.20;8.25;;;23.10;1.00;;;;;;5053461;28;20029;-56
2023/05/30 06:22:46;;;;;;;12.05;8.27;;;23.10;1.00;;;;;;5052203;28;20029;-57
2023/05/30 06:25:11;;;;;;;11.02;8.55;;;23.10;1.00;;;;;;5053675;28;20467;-55
2023/05/30 06:27:37;;;;;;;14.05;9.65;;;23.10;1.00;;;;;;5054270;28;20025;-58
2023/05/30 06:30:03;;;;;;;10.95;8.57;;;23.10;1.00;;;;;;5050652;28;20425;-56
2023/05/30 06:32:29;;;;;;;14.80;9.07;;;23.10;1.00;;;;;;5052732;28;20496;-56
2023/05/30 06:34:54;;;;;;;13.00;9.85;;;23.10;1.00;;;;;;5053331;28;20116;-57
2023/05/30 06:37:20;;;;;;;18.75;11.23;;;23.10;1.00;;;;;;5053853;28;20040;-55
2023/05/30 06:39:46;;;;;;;13.32;10.25;;;23.10;1.00;;;;;;5051989;28;20088;-57
2023/05/30 06:42:11;;;;;;;14.15;10.68;;;23.10;1.00;;;;;;5052606;28;20028;-56
2023/05/30 06:44:38;;;;;;;16.90;11.35;;;23.10;1.00;;;;;;5052736;28;20032;-57
2023/05/30 06:47:04;;;;;;;16.88;10.25;;;23.00;1.00;;;;;;5052311;28;20037;-60
2023/05/30 06:49:30;;;;;;;13.55;10.32;;;23.00;1.00;;;;;;5051535;28;20021;-56
2023/05/30 06:51:56;;;;;;;16.45;11.20;;;23.00;1.00;;;;;;5054253;28;20449;-58
2023/05/30 06:54:22;;;;;;;13.25;10.15;;;23.10;1.00;;;;;;5052632;28;20020;-57
2023/05/30 06:56:48;;;;;;;15.95;10.82;;;23.10;1.00;;;;;;5053765;28;20449;-57
2023/05/30 06:59:13;;;;;;;14.40;11.32;;;23.10;1.00;;;;;;5053384;28;20056;-57
2023/05/30 07:01:39;;;;;;;14.88;10.75;;;23.10;1.00;;;;;;5048908;28;20071;-58
2023/05/30 07:04:05;;;;;;;15.32;11.05;;;23.10;1.00;;;;;;5052305;28;20029;-57
2023/05/30 07:06:31;;;;;;;14.40;11.68;;;23.10;1.00;;;;;;5052353;28;20100;-58
2023/05/30 07:08:57;;;;;;;13.05;10.68;;;23.10;1.00;;;;;;5047079;28;20037;-54
2023/05/30 07:11:23;;;;;;;13.32;10.40;;;23.10;1.00;;;;;;5049452;28;20037;-52
2023/05/30 07:13:48;;;;;;;15.80;11.45;;;23.20;1.00;;;;;;5050094;28;20033;-54
2023/05/30 07:16:14;;;;;;;14.80;10.50;;;23.20;1.00;;;;;;5050990;28;20033;-53
2023/05/30 07:18:40;;;;;;;14.00;10.90;;;23.20;1.00;;;;;;5053721;28;20021;-52
2023/05/30 07:21:07;;;;;;;15.15;11.60;;;23.30;1.00;;;;;;5052085;28;20063;-50
2023/05/30 07:23:34;;;;;;;16.88;11.07;;;23.30;1.00;;;;;;5053128;28;20378;-54
2023/05/30 07:26:00;;;;;;;16.05;11.25;;;23.30;1.00;;;;;;5050734;28;20500;-49
2023/05/30 07:28:25;;;;;;;15.45;11.50;;;23.30;1.00;;;;;;5051554;28;20037;-51
2023/05/30 07:30:51;;;;;;;15.63;11.73;;;23.40;1.00;;;;;;5050906;28;20047;-52
2023/05/30 07:33:17;;;;;;;14.30;11.65;;;23.40;1.00;;;;;;5052895;28;20029;-54
2023/05/30 07:35:42;;;;;;;15.30;11.85;;;23.40;1.00;;;;;;5049925;28;20021;-54
2023/05/30 07:38:08;;;;;;;15.85;11.38;;;23.40;1.00;;;;;;5052897;28;20033;-50
2023/05/30 07:40:34;;;;;;;15.23;11.68;;;23.50;1.00;;;;;;5052344;28;20039;-50
2023/05/30 07:43:00;;;;;;;17.75;11.93;;;23.50;1.00;;;;;;5052877;28;20025;-51
2023/05/30 07:45:25;;;;;;;13.82;11.32;;;23.50;1.00;;;;;;5049760;28;20039;-53
2023/05/30 07:47:51;;;;;;;15.15;11.75;;;23.60;1.00;;;;;;5052565;28;20108;-53
2023/05/30 07:50:17;;;;;;;13.35;11.88;;;23.60;1.00;;;;;;5050617;28;20037;-52
2023/05/30 07:52:43;;;;;;;14.30;11.50;;;23.60;1.00;;;;;;5052841;28;20044;-54
2023/05/30 07:55:08;;;;;;;14.43;11.00;;;23.70;1.00;;;;;;5050455;28;20352;-50
2023/05/30 07:57:34;;;;;;;13.50;11.13;;;23.80;1.00;;;;;;5052844;28;20352;-50
2023/05/30 08:00:00;;;;;;;14.75;13.18;;;23.80;1.00;;;;;;5050401;28;20029;-52
2023/05/30 08:02:25;;;;;;;15.73;12.93;;;23.90;1.00;;;;;;5052799;28;20049;-52
2023/05/30 08:04:55;;;;;;;21.70;14.75;;;23.90;1.00;;;;;;5050377;28;20028;-51
2023/05/30 08:07:21;;;;;;;15.98;13.27;;;24.00;1.00;;;;;;5051156;28;20112;-50
2023/05/30 08:09:47;;;;;;;18.52;12.88;;;24.00;1.00;;;;;;5052822;28;20129;-55
2023/05/30 08:12:20;;;;;;;14.50;12.30;;;24.10;1.00;;;;;;5051836;28;20025;-53
2023/05/30 08:14:47;;;;;;;15.13;12.55;;;24.10;1.00;;;;;;5052567;28;20037;-53
2023/05/30 08:17:16;;;;;;;16.40;12.30;;;24.10;1.00;;;;;;5049846;28;20104;-52
2023/05/30 08:19:45;;;;;;;21.85;11.98;;;24.20;1.00;;;;;;5045590;28;20168;-56
2023/05/30 08:22:11;;;;;;;17.45;12.73;;;24.20;1.00;;;;;;5049632;28;20025;-50
2023/05/30 08:24:36;;;;;;;21.52;13.00;;;24.20;1.00;;;;;;5049390;28;20029;-52
2023/05/30 08:27:03;;;;;;;17.48;12.73;;;24.20;1.00;;;;;;5044139;28;20383;-48
2023/05/30 08:29:30;;;;;;;18.45;11.98;;;24.30;99.90;;;;;;5050010;28;20041;-51
2023/05/30 08:31:56;;;;;;;15.60;12.63;;;24.20;1.00;;;;;;5044367;28;20025;-48
2023/05/30 08:34:24;;;;;;;15.00;11.65;;;24.20;99.90;;;;;;5052387;28;20031;-54
2023/05/30 08:36:53;;;;;;;17.08;11.75;;;24.20;1.00;;;;;;5050173;28;20017;-50
2023/05/30 08:39:19;;;;;;;15.65;11.73;;;24.30;99.90;;;;;;5049814;28;20126;-51
2023/05/30 08:41:45;;;;;;;16.23;10.70;;;24.20;99.90;;;;;;5051650;28;20045;-50
2023/05/30 08:44:11;;;;;;;12.82;9.90;;;24.30;99.90;;;;;;5052356;28;20029;-52
2023/05/30 08:46:44;;;;;;;13.95;11.10;;;24.30;99.90;;;;;;5051002;28;20036;-49
2023/05/30 08:49:13;;;;;;;14.43;11.73;;;24.40;99.90;;;;;;5052446;28;20033;-51
2023/05/30 08:51:42;;;;;;;15.77;12.75;;;24.40;99.90;;;;;;5048000;28;20032;-51
2023/05/30 08:54:15;;;;;;;15.65;12.10;;;24.40;99.90;;;;;;5052350;28;20029;-50
2023/05/30 08:57:14;;;;;;;15.13;11.68;;;24.40;99.90;;;;;;5049990;28;20033;-52
2023/05/30 08:59:40;;;;;;;14.52;9.90;;;24.40;99.90;;;;;;5039533;28;20059;-53
2023/05/30 09:02:07;;;;;;;14.63;11.27;;;24.50;99.90;;;;;;5055655;28;20087;-52
2023/05/30 09:04:34;;;;;;;13.23;11.93;;;24.50;99.90;;;;;;5055687;28;20033;-55
2023/05/30 09:07:02;;;;;;;17.13;13.07;;;24.50;99.90;;;;;;5055263;28;20486;-51
2023/05/30 09:09:32;;;;;;;14.63;11.40;;;24.60;99.90;;;;;;5053825;28;20033;-55
2023/05/30 09:11:58;;;;;;;14.00;11.68;;;24.60;99.90;;;;;;5054825;28;20025;-53
2023/05/30 09:14:24;;;;;;;14.63;10.80;;;24.60;99.90;;;;;;5055783;28;20386;-50
2023/05/30 09:16:50;;;;;;;13.90;10.40;;;24.60;99.90;;;;;;5053768;28;20375;-50
2023/05/30 09:19:15;;;;;;;13.07;10.00;;;24.70;99.90;;;;;;5054303;28;20039;-50
2023/05/30 09:21:41;;;;;;;13.77;10.32;;;24.70;99.90;;;;;;5053518;28;20044;-51
2023/05/30 09:24:07;;;;;;;22.45;10.65;;;24.80;99.90;;;;;;5054282;28;20041;-51
2023/05/30 09:26:33;;;;;;;15.40;9.65;;;24.80;99.90;;;;;;5051347;28;20036;-49
2023/05/30 09:29:09;;;;;;;15.80;11.90;;;24.90;99.90;;;;;;5052398;28;20037;-52
2023/05/30 09:31:36;;;;;;;13.73;11.10;;;24.90;99.90;;;;;;5054888;28;20029;-54
2023/05/30 09:34:02;;;;;;;13.15;10.95;;;24.90;99.90;;;;;;5055341;28;20122;-55
2023/05/30 09:36:31;;;;;;;16.65;11.73;;;25.00;99.90;;;;;;5054608;28;20457;-55
2023/05/30 09:39:05;;;;;;;13.73;10.73;;;25.00;99.90;;;;;;5054018;28;20056;-54
2023/05/30 09:41:31;;;;;;;11.35;9.95;;;25.00;99.90;;;;;;5053645;28;20479;-53
2023/05/30 09:43:57;;;;;;;13.48;9.60;;;25.10;99.90;;;;;;5055044;28;20033;-54
2023/05/30 09:46:26;;;;;;;10.75;9.50;;;25.10;99.90;;;;;;5054125;28;20021;-52
2023/05/30 09:48:52;;;;;;;11.60;9.23;;;25.20;99.90;;;;;;5055004;28;20047;-55
2023/05/30 09:51:25;;;;;;;10.68;9.43;;;25.30;99.90;;;;;;5052560;28;20049;-51
2023/05/30 09:54:04;;;;;;;13.80;10.37;;;25.40;99.90;;;;;;5043408;28;20123;-51
2023/05/30 09:56:30;;;;;;;11.10;10.00;;;25.40;99.90;;;;;;5047600;28;20079;-52
2023/05/30 09:59:10;;;;;;;11.38;10.07;;;25.40;99.90;;;;;;5043857;28;20422;-49
2023/05/30 10:01:36;;;;;;;11.85;10.70;;;25.50;99.90;;;;;;5053919;28;20490;-49
2023/05/30 10:04:13;;;;;;;16.58;10.98;;;25.50;99.90;;;;;;5054801;28;20044;-49
2023/05/30 10:06:41;;;;;;;13.63;11.18;;;25.60;99.90;;;;;;5052309;28;20037;-48
2023/05/30 10:09:08;;;;;;;12.30;10.02;;;25.70;99.90;;;;;;5052621;28;20118;-51
2023/05/30 10:11:34;;;;;;;14.13;10.85;;;25.70;99.90;;;;;;5048382;28;20025;-48
2023/05/30 10:14:00;;;;;;;14.10;11.18;;;25.70;99.90;;;;;;5048647;28;20020;-51
2023/05/30 10:16:28;;;;;;;13.15;11.75;;;25.80;99.90;;;;;;5054369;28;20013;-49
2023/05/30 10:18:59;;;;;;;16.00;11.80;;;25.90;99.90;;;;;;5057076;28;20079;-49
2023/05/30 10:21:26;;;;;;;20.02;14.20;;;25.90;99.90;;;;;;5058438;28;20024;-47
2023/05/30 10:23:53;;;;;;;18.58;14.60;;;26.00;99.90;;;;;;5053645;28;20021;-47
2023/05/30 10:26:27;;;;;;;14.23;12.75;;;26.00;99.90;;;;;;5054053;28;20017;-49
2023/05/30 10:28:55;;;;;;;17.73;13.35;;;26.10;99.90;;;;;;5052889;28;20078;-50
2023/05/30 10:31:23;;;;;;;13.98;12.07;;;26.20;99.90;;;;;;5052830;28;20033;-64
2023/05/30 10:33:51;;;;;;;15.13;10.73;;;26.30;99.90;;;;;;5054973;28;20033;-64
2023/05/30 10:36:17;;;;;;;16.75;15.00;;;26.30;99.90;;;;;;5056605;28;20032;-63
2023/05/30 10:38:58;;;;;;;17.73;15.30;;;26.40;99.90;;;;;;5056920;28;20075;-65
2023/05/30 10:41:32;;;;;;;18.40;15.02;;;26.40;99.90;;;;;;5045595;28;20033;-68
2023/05/30 10:44:13;;;;;;;15.85;13.85;;;26.40;99.90;;;;;;5054320;28;20050;-68
2023/05/30 10:46:54;;;;;;;15.93;13.32;;;26.50;99.90;;;;;;5054734;28;20031;-70
2023/05/30 10:49:24;;;;;;;15.43;13.63;;;26.50;99.90;;;;;;5048123;28;20433;-48
2023/05/30 10:52:07;;;;;;;15.90;12.40;;;26.50;99.90;;;;;;5047654;28;20054;-62
2023/05/30 10:54:34;;;;;;;16.63;12.40;;;26.80;99.90;;;;;;5043873;28;20434;-56
2023/05/30 10:57:24;;;;;;;15.27;11.10;;;26.90;99.90;;;;;;5048108;28;20071;-60
2023/05/30 10:59:52;;;;;;;12.98;10.65;;;27.00;99.90;;;;;;5044404;28;20076;-48
2023/05/30 11:02:34;;;;;;;11.77;10.48;;;27.10;99.90;;;;;;5044789;28;20079;-51
2023/05/30 11:05:08;;;;;;;10.95;8.68;;;27.30;99.90;;;;;;5048619;28;20082;-52
2023/05/30 11:07:36;;;;;;;12.30;9.40;;;27.30;99.90;;;;;;5049066;28;20044;-52
2023/05/30 11:10:05;;;;;;;11.10;10.00;;;27.40;99.90;;;;;;5050293;28;20490;-60
2023/05/30 11:12:31;;;;;;;12.60;10.85;;;27.50;99.90;;;;;;5049855;28;20024;-57
2023/05/30 11:14:58;;;;;;;31.67;24.45;;;27.60;99.90;;;;;;5052429;28;20033;-59
2023/05/30 11:17:34;;;;;;;12.75;9.38;;;27.80;99.90;;;;;;5048975;28;20044;-61
2023/05/30 11:20:06;;;;;;;11.60;9.73;;;27.90;99.90;;;;;;5044326;28;20033;-75
2023/05/30 11:22:32;;;;;;;10.82;8.02;;;28.00;99.90;;;;;;5043460;28;20039;-63
2023/05/30 11:25:23;;;;;;;12.95;8.98;;;28.10;99.90;;;;;;5049978;28;20029;-62
2023/05/30 11:28:04;;;;;;;10.70;8.95;;;28.20;99.90;;;;;;5042749;28;20035;-69
2023/05/30 11:30:40;;;;;;;11.38;9.10;;;28.10;99.90;;;;;;5042612;28;20041;-68
2023/05/30 11:33:18;;;;;;;10.05;8.57;;;28.00;99.90;;;;;;5051994;28;20031;-69
2023/05/30 11:35:48;;;;;;;12.85;8.85;;;28.10;99.90;;;;;;5042444;28;20048;-69
2023/05/30 11:38:21;;;;;;;9.82;7.60;;;28.20;99.90;;;;;;5037827;28;20033;-64
2023/05/30 11:40:48;;;;;;;9.00;8.07;;;28.30;99.90;;;;;;5045089;28;20052;-63
2023/05/30 11:43:17;;;;;;;12.13;7.57;;;28.50;99.90;;;;;;5043864;28;20032;-70
2023/05/30 11:45:50;;;;;;;9.23;7.22;;;28.70;99.90;;;;;;5046454;28;20491;-67
2023/05/30 11:48:17;;;;;;;9.90;8.00;;;29.20;99.90;;;;;;5042487;28;20241;-69
2023/05/30 11:50:43;;;;;;;8.40;7.38;;;30.40;99.90;;;;;;5042208;28;20026;-67
2023/05/30 11:53:11;;;;;;;8.98;7.95;;;31.90;99.90;;;;;;5050701;28;20059;-62
2023/05/30 11:55:36;;;;;;;9.20;7.55;;;33.10;99.90;;;;;;5044714;28;20031;-66
2023/05/30 11:58:02;;;;;;;9.52;8.63;;;33.60;99.90;;;;;;5045819;28;20036;-69
2023/05/30 12:00:28;;;;;;;9.57;8.57;;;33.80;99.90;;;;;;5050227;28;20065;-63
2023/05/30 12:02:53;;;;;;;11.30;9.10;;;33.00;99.90;;;;;;5047169;28;20072;-67
2023/05/30 12:05:22;;;;;;;10.98;8.55;;;32.80;99.90;;;;;;5044499;28;20078;-59
2023/05/30 12:07:54;;;;;;;11.50;9.25;;;33.90;99.90;;;;;;5049688;28;20075;-68
2023/05/30 12:10:35;;;;;;;11.48;8.82;;;35.40;99.90;;;;;;5046495;28;20044;-65
2023/05/30 12:13:01;;;;;;;9.77;8.80;;;35.70;99.90;;;;;;5041885;28;20544;-64
2023/05/30 12:15:27;;;;;;;11.27;8.18;;;36.10;99.90;;;;;;5046009;28;20057;-64
2023/05/30 12:17:53;;;;;;;9.00;8.20;;;35.60;99.90;;;;;;5038540;28;20049;-66
2023/05/30 12:20:20;;;;;;;14.32;9.50;;;36.30;99.90;;;;;;5050938;28;20064;-64
2023/05/30 12:22:47;;;;;;;11.45;9.05;;;38.70;99.90;;;;;;5044204;28;20371;-63
2023/05/30 12:25:13;;;;;;;10.60;9.40;;;39.80;99.90;;;;;;5042466;28;20051;-64
2023/05/30 12:27:44;;;;;;;8.93;8.13;;;39.80;99.90;;;;;;5043957;28;21533;-53
2023/05/30 12:30:16;;;;;;;9.18;8.23;;;39.10;99.90;;;;;;5045755;28;20037;-58
2023/05/30 12:32:41;;;;;;;11.25;10.15;;;38.70;99.90;;;;;;5048076;28;20056;-54
2023/05/30 12:35:08;;;;;;;8.93;7.85;;;35.90;99.90;;;;;;5043835;28;20029;-53
2023/05/30 12:37:33;;;;;;;11.20;8.60;;;35.40;99.90;;;;;;5072256;28;20036;-52
2023/05/30 12:40:00;;;;;;;8.45;7.47;;;35.50;99.90;;;;;;5053385;28;20049;-54
2023/05/30 12:42:28;;;;;;;8.85;7.95;;;35.80;99.90;;;;;;5051696;28;20036;-55